sensor_id;sensor_type;location;lat;lon;timestamp;P1;durP1;ratioP1;P2;durP2;ratioP2
25715;SDS011;13573;50.936;4.328;2022-07-17T00:00:29;8.03;;;2.23;;
25715;SDS011;13573;50.936;4.328;2022-07-17T00:02:56;4.43;;;2.07;;
25715;SDS011;13573;50.936;4.328;2022-07-17T00:05:23;6.07;;;2.07;;
25715;SDS011;13573;50.936;4.328;2022-07-17T00:07:49;5.77;;;2.00;;
25715;SDS011;13573;50.936;4.328;2022-07-17T00:10:16;6.63;;;2.60;;
25715;SDS011;13573;50.936;4.328;2022-07-17T00:12:43;4.97;;;2.20;;
25715;SDS011;13573;50.936;4.328;2022-07-17T00:15:10;7.63;;;2.13;;
25715;SDS011;13573;50.936;4.328;2022-07-17T00:17:38;8.93;;;2.40;;
25715;SDS011;13573;50.936;4.328;2022-07-17T00:20:06;7.20;;;2.00;;
25715;SDS011;13573;50.936;4.328;2022-07-17T00:22:33;5.93;;;2.00;;
25715;SDS011;13573;50.936;4.328;2022-07-17T00:25:00;4.40;;;1.80;;
25715;SDS011;13573;50.936;4.328;2022-07-17T00:27:27;5.93;;;2.60;;
25715;SDS011;13573;50.936;4.328;2022-07-17T00:29:53;5.37;;;2.10;;
25715;SDS011;13573;50.936;4.328;2022-07-17T00:32:20;4.90;;;2.37;;
25715;SDS011;13573;50.936;4.328;2022-07-17T00:34:49;5.30;;;2.60;;
25715;SDS011;13573;50.936;4.328;2022-07-17T00:37:17;6.23;;;2.40;;
25715;SDS011;13573;50.936;4.328;2022-07-17T00:39:43;6.63;;;2.53;;
25715;SDS011;13573;50.936;4.328;2022-07-17T00:42:12;12.47;;;2.57;;
25715;SDS011;13573;50.936;4.328;2022-07-17T00:44:39;5.13;;;2.30;;
25715;SDS011;13573;50.936;4.328;2022-07-17T00:47:11;6.10;;;2.07;;
25715;SDS011;13573;50.936;4.328;2022-07-17T00:49:42;6.57;;;2.33;;
25715;SDS011;13573;50.936;4.328;2022-07-17T00:52:10;4.73;;;2.20;;
25715;SDS011;13573;50.936;4.328;2022-07-17T00:54:39;10.17;;;2.03;;
25715;SDS011;13573;50.936;4.328;2022-07-17T00:57:08;5.37;;;2.10;;
25715;SDS011;13573;50.936;4.328;2022-07-17T00:59:37;6.67;;;2.20;;
25715;SDS011;13573;50.936;4.328;2022-07-17T01:02:05;4.50;;;1.80;;
25715;SDS011;13573;50.936;4.328;2022-07-17T01:04:33;5.17;;;1.90;;
25715;SDS011;13573;50.936;4.328;2022-07-17T01:07:00;7.23;;;2.23;;
25715;SDS011;13573;50.936;4.328;2022-07-17T01:09:28;5.37;;;2.37;;
25715;SDS011;13573;50.936;4.328;2022-07-17T01:11:56;5.60;;;1.97;;
25715;SDS011;13573;50.936;4.328;2022-07-17T01:14:23;4.87;;;2.43;;
25715;SDS011;13573;50.936;4.328;2022-07-17T01:16:52;6.50;;;2.30;;
25715;SDS011;13573;50.936;4.328;2022-07-17T01:19:20;6.10;;;2.30;;
25715;SDS011;13573;50.936;4.328;2022-07-17T01:21:48;4.47;;;2.20;;
25715;SDS011;13573;50.936;4.328;2022-07-17T01:24:16;6.50;;;2.40;;
25715;SDS011;13573;50.936;4.328;2022-07-17T01:26:43;7.87;;;2.23;;
25715;SDS011;13573;50.936;4.328;2022-07-17T01:29:11;5.60;;;2.50;;
25715;SDS011;13573;50.936;4.328;2022-07-17T01:31:39;6.70;;;2.47;;
25715;SDS011;13573;50.936;4.328;2022-07-17T01:34:07;6.60;;;2.57;;
25715;SDS011;13573;50.936;4.328;2022-07-17T01:36:38;6.17;;;2.20;;
25715;SDS011;13573;50.936;4.328;2022-07-17T01:39:05;7.27;;;2.60;;
25715;SDS011;13573;50.936;4.328;2022-07-17T01:41:37;5.57;;;2.10;;
25715;SDS011;13573;50.936;4.328;2022-07-17T01:44:05;5.77;;;2.23;;
25715;SDS011;13573;50.936;4.328;2022-07-17T01:46:32;4.17;;;2.43;;
25715;SDS011;13573;50.936;4.328;2022-07-17T01:48:59;5.37;;;2.07;;
25715;SDS011;13573;50.936;4.328;2022-07-17T01:51:28;6.23;;;2.70;;
25715;SDS011;13573;50.936;4.328;2022-07-17T01:53:54;4.30;;;2.10;;
25715;SDS011;13573;50.936;4.328;2022-07-17T01:56:22;4.37;;;1.97;;
25715;SDS011;13573;50.936;4.328;2022-07-17T01:58:49;7.07;;;2.20;;
25715;SDS011;13573;50.936;4.328;2022-07-17T02:01:15;3.63;;;2.10;;
25715;SDS011;13573;50.936;4.328;2022-07-17T02:03:42;5.70;;;2.40;;
25715;SDS011;13573;50.936;4.328;2022-07-17T02:06:10;9.17;;;2.70;;
25715;SDS011;13573;50.936;4.328;2022-07-17T02:08:37;5.30;;;2.30;;
25715;SDS011;13573;50.936;4.328;2022-07-17T02:11:05;5.77;;;2.50;;
25715;SDS011;13573;50.936;4.328;2022-07-17T02:13:31;7.23;;;2.53;;
25715;SDS011;13573;50.936;4.328;2022-07-17T02:15:58;5.77;;;2.60;;
25715;SDS011;13573;50.936;4.328;2022-07-17T02:18:25;3.70;;;2.17;;
25715;SDS011;13573;50.936;4.328;2022-07-17T02:20:51;6.97;;;2.70;;
25715;SDS011;13573;50.936;4.328;2022-07-17T02:23:18;6.13;;;2.50;;
25715;SDS011;13573;50.936;4.328;2022-07-17T02:25:44;6.73;;;2.50;;
25715;SDS011;13573;50.936;4.328;2022-07-17T02:28:12;3.47;;;2.43;;
25715;SDS011;13573;50.936;4.328;2022-07-17T02:30:38;4.93;;;2.20;;
25715;SDS011;13573;50.936;4.328;2022-07-17T02:33:05;4.83;;;2.60;;
25715;SDS011;13573;50.936;4.328;2022-07-17T02:35:32;5.70;;;2.80;;
25715;SDS011;13573;50.936;4.328;2022-07-17T02:38:00;5.40;;;3.03;;
25715;SDS011;13573;50.936;4.328;2022-07-17T02:40:26;7.70;;;2.87;;
25715;SDS011;13573;50.936;4.328;2022-07-17T02:42:53;5.90;;;2.90;;
25715;SDS011;13573;50.936;4.328;2022-07-17T02:45:19;5.27;;;2.60;;
25715;SDS011;13573;50.936;4.328;2022-07-17T02:47:48;4.50;;;2.77;;
25715;SDS011;13573;50.936;4.328;2022-07-17T02:50:16;10.50;;;3.30;;
25715;SDS011;13573;50.936;4.328;2022-07-17T02:52:43;7.93;;;3.43;;
25715;SDS011;13573;50.936;4.328;2022-07-17T02:55:10;5.70;;;2.77;;
25715;SDS011;13573;50.936;4.328;2022-07-17T02:57:37;5.67;;;2.80;;
25715;SDS011;13573;50.936;4.328;2022-07-17T03:00:06;5.17;;;2.70;;
25715;SDS011;13573;50.936;4.328;2022-07-17T03:02:33;6.30;;;3.00;;
25715;SDS011;13573;50.936;4.328;2022-07-17T03:05:01;6.93;;;3.10;;
25715;SDS011;13573;50.936;4.328;2022-07-17T03:07:29;4.70;;;2.70;;
25715;SDS011;13573;50.936;4.328;2022-07-17T03:09:55;4.17;;;2.73;;
25715;SDS011;13573;50.936;4.328;2022-07-17T03:12:22;6.77;;;2.90;;
25715;SDS011;13573;50.936;4.328;2022-07-17T03:14:49;5.40;;;2.87;;
25715;SDS011;13573;50.936;4.328;2022-07-17T03:17:16;5.30;;;3.43;;
25715;SDS011;13573;50.936;4.328;2022-07-17T03:19:43;6.83;;;2.73;;
25715;SDS011;13573;50.936;4.328;2022-07-17T03:22:09;7.03;;;2.97;;
25715;SDS011;13573;50.936;4.328;2022-07-17T03:24:36;5.10;;;2.93;;
25715;SDS011;13573;50.936;4.328;2022-07-17T03:27:03;11.37;;;3.23;;
25715;SDS011;13573;50.936;4.328;2022-07-17T03:29:29;7.27;;;3.30;;
25715;SDS011;13573;50.936;4.328;2022-07-17T03:31:56;5.50;;;2.97;;
25715;SDS011;13573;50.936;4.328;2022-07-17T03:34:23;7.57;;;3.70;;
25715;SDS011;13573;50.936;4.328;2022-07-17T03:36:51;6.73;;;2.97;;
25715;SDS011;13573;50.936;4.328;2022-07-17T03:39:19;5.27;;;3.10;;
25715;SDS011;13573;50.936;4.328;2022-07-17T03:41:46;10.07;;;3.07;;
25715;SDS011;13573;50.936;4.328;2022-07-17T03:44:12;9.23;;;2.97;;
25715;SDS011;13573;50.936;4.328;2022-07-17T03:46:40;5.27;;;2.80;;
25715;SDS011;13573;50.936;4.328;2022-07-17T03:49:06;7.27;;;3.70;;
25715;SDS011;13573;50.936;4.328;2022-07-17T03:51:33;9.97;;;3.83;;
25715;SDS011;13573;50.936;4.328;2022-07-17T03:53:59;9.03;;;3.77;;
25715;SDS011;13573;50.936;4.328;2022-07-17T03:56:26;6.83;;;3.20;;
25715;SDS011;13573;50.936;4.328;2022-07-17T03:58:53;6.73;;;3.30;;
25715;SDS011;13573;50.936;4.328;2022-07-17T04:01:20;6.60;;;3.50;;
25715;SDS011;13573;50.936;4.328;2022-07-17T04:03:48;4.77;;;2.90;;
25715;SDS011;13573;50.936;4.328;2022-07-17T04:06:14;7.87;;;3.73;;
25715;SDS011;13573;50.936;4.328;2022-07-17T04:08:41;7.77;;;3.80;;
25715;SDS011;13573;50.936;4.328;2022-07-17T04:11:08;8.30;;;3.43;;
25715;SDS011;13573;50.936;4.328;2022-07-17T04:13:35;5.17;;;3.20;;
25715;SDS011;13573;50.936;4.328;2022-07-17T04:16:03;7.37;;;3.70;;
25715;SDS011;13573;50.936;4.328;2022-07-17T04:18:31;8.00;;;3.30;;
25715;SDS011;13573;50.936;4.328;2022-07-17T04:21:02;8.40;;;3.97;;
25715;SDS011;13573;50.936;4.328;2022-07-17T04:23:28;8.13;;;3.57;;
25715;SDS011;13573;50.936;4.328;2022-07-17T04:25:55;7.10;;;3.53;;
25715;SDS011;13573;50.936;4.328;2022-07-17T04:28:22;8.43;;;3.73;;
25715;SDS011;13573;50.936;4.328;2022-07-17T04:30:48;9.43;;;4.20;;
25715;SDS011;13573;50.936;4.328;2022-07-17T04:33:16;10.67;;;4.20;;
25715;SDS011;13573;50.936;4.328;2022-07-17T04:35:44;10.00;;;3.73;;
25715;SDS011;13573;50.936;4.328;2022-07-17T04:38:10;6.67;;;3.00;;
25715;SDS011;13573;50.936;4.328;2022-07-17T04:40:38;9.60;;;3.57;;
25715;SDS011;13573;50.936;4.328;2022-07-17T04:43:05;8.17;;;3.70;;
25715;SDS011;13573;50.936;4.328;2022-07-17T04:45:32;9.23;;;3.90;;
25715;SDS011;13573;50.936;4.328;2022-07-17T04:47:59;7.33;;;3.67;;
25715;SDS011;13573;50.936;4.328;2022-07-17T04:50:26;8.63;;;3.97;;
25715;SDS011;13573;50.936;4.328;2022-07-17T04:52:53;7.30;;;3.60;;
25715;SDS011;13573;50.936;4.328;2022-07-17T04:55:20;8.00;;;3.87;;
25715;SDS011;13573;50.936;4.328;2022-07-17T04:57:46;6.40;;;3.43;;
25715;SDS011;13573;50.936;4.328;2022-07-17T05:00:13;6.97;;;3.63;;
25715;SDS011;13573;50.936;4.328;2022-07-17T05:02:41;5.90;;;3.20;;
25715;SDS011;13573;50.936;4.328;2022-07-17T05:05:08;10.60;;;3.93;;
25715;SDS011;13573;50.936;4.328;2022-07-17T05:07:35;12.13;;;4.23;;
25715;SDS011;13573;50.936;4.328;2022-07-17T05:10:03;7.93;;;3.13;;
25715;SDS011;13573;50.936;4.328;2022-07-17T05:12:30;9.13;;;3.37;;
25715;SDS011;13573;50.936;4.328;2022-07-17T05:14:58;6.80;;;3.33;;
25715;SDS011;13573;50.936;4.328;2022-07-17T05:17:24;8.53;;;3.53;;
25715;SDS011;13573;50.936;4.328;2022-07-17T05:19:51;8.20;;;3.63;;
25715;SDS011;13573;50.936;4.328;2022-07-17T05:22:18;7.67;;;3.93;;
25715;SDS011;13573;50.936;4.328;2022-07-17T05:24:45;9.03;;;3.80;;
25715;SDS011;13573;50.936;4.328;2022-07-17T05:27:11;12.73;;;4.63;;
25715;SDS011;13573;50.936;4.328;2022-07-17T05:29:38;10.03;;;4.00;;
25715;SDS011;13573;50.936;4.328;2022-07-17T05:32:05;7.37;;;4.07;;
25715;SDS011;13573;50.936;4.328;2022-07-17T05:34:32;8.23;;;4.13;;
25715;SDS011;13573;50.936;4.328;2022-07-17T05:36:58;9.93;;;4.50;;
25715;SDS011;13573;50.936;4.328;2022-07-17T05:39:25;12.07;;;4.10;;
25715;SDS011;13573;50.936;4.328;2022-07-17T05:41:52;11.67;;;3.37;;
25715;SDS011;13573;50.936;4.328;2022-07-17T05:44:18;9.83;;;3.50;;
25715;SDS011;13573;50.936;4.328;2022-07-17T05:46:46;6.83;;;3.13;;
25715;SDS011;13573;50.936;4.328;2022-07-17T05:49:13;6.53;;;3.27;;
25715;SDS011;13573;50.936;4.328;2022-07-17T05:51:39;6.57;;;2.87;;
25715;SDS011;13573;50.936;4.328;2022-07-17T05:54:06;6.27;;;3.53;;
25715;SDS011;13573;50.936;4.328;2022-07-17T05:56:33;7.27;;;3.07;;
25715;SDS011;13573;50.936;4.328;2022-07-17T05:58:59;9.50;;;3.30;;
25715;SDS011;13573;50.936;4.328;2022-07-17T06:01:26;11.77;;;3.17;;
25715;SDS011;13573;50.936;4.328;2022-07-17T06:03:53;8.20;;;3.00;;
25715;SDS011;13573;50.936;4.328;2022-07-17T06:06:20;5.87;;;2.70;;
25715;SDS011;13573;50.936;4.328;2022-07-17T06:08:47;8.67;;;3.27;;
25715;SDS011;13573;50.936;4.328;2022-07-17T06:11:13;4.77;;;2.97;;
25715;SDS011;13573;50.936;4.328;2022-07-17T06:13:40;5.17;;;2.60;;
25715;SDS011;13573;50.936;4.328;2022-07-17T06:16:07;11.83;;;2.73;;
25715;SDS011;13573;50.936;4.328;2022-07-17T06:18:34;4.67;;;2.63;;
25715;SDS011;13573;50.936;4.328;2022-07-17T06:21:00;8.03;;;2.87;;
25715;SDS011;13573;50.936;4.328;2022-07-17T06:23:27;6.67;;;2.60;;
25715;SDS011;13573;50.936;4.328;2022-07-17T06:25:54;8.23;;;2.50;;
25715;SDS011;13573;50.936;4.328;2022-07-17T06:28:20;5.83;;;3.07;;
25715;SDS011;13573;50.936;4.328;2022-07-17T06:30:47;7.43;;;2.80;;
25715;SDS011;13573;50.936;4.328;2022-07-17T06:33:14;8.03;;;2.87;;
25715;SDS011;13573;50.936;4.328;2022-07-17T06:35:40;6.37;;;2.20;;
25715;SDS011;13573;50.936;4.328;2022-07-17T06:38:07;6.90;;;2.73;;
25715;SDS011;13573;50.936;4.328;2022-07-17T06:40:36;6.97;;;2.30;;
25715;SDS011;13573;50.936;4.328;2022-07-17T06:43:04;7.43;;;2.00;;
25715;SDS011;13573;50.936;4.328;2022-07-17T06:45:32;6.93;;;2.23;;
25715;SDS011;13573;50.936;4.328;2022-07-17T06:47:59;7.37;;;2.03;;
25715;SDS011;13573;50.936;4.328;2022-07-17T06:50:27;5.83;;;2.27;;
25715;SDS011;13573;50.936;4.328;2022-07-17T06:52:54;8.40;;;2.00;;
25715;SDS011;13573;50.936;4.328;2022-07-17T06:55:20;6.67;;;2.40;;
25715;SDS011;13573;50.936;4.328;2022-07-17T06:57:47;6.40;;;2.10;;
25715;SDS011;13573;50.936;4.328;2022-07-17T07:00:14;6.23;;;2.20;;
25715;SDS011;13573;50.936;4.328;2022-07-17T07:02:42;7.20;;;2.23;;
25715;SDS011;13573;50.936;4.328;2022-07-17T07:05:09;5.97;;;2.27;;
25715;SDS011;13573;50.936;4.328;2022-07-17T07:07:36;8.20;;;2.40;;
25715;SDS011;13573;50.936;4.328;2022-07-17T07:10:03;6.60;;;2.03;;
25715;SDS011;13573;50.936;4.328;2022-07-17T07:12:29;5.93;;;1.87;;
25715;SDS011;13573;50.936;4.328;2022-07-17T07:14:56;5.33;;;2.00;;
25715;SDS011;13573;50.936;4.328;2022-07-17T07:17:23;3.80;;;1.60;;
25715;SDS011;13573;50.936;4.328;2022-07-17T07:19:49;5.53;;;1.90;;
25715;SDS011;13573;50.936;4.328;2022-07-17T07:22:16;4.00;;;1.80;;
25715;SDS011;13573;50.936;4.328;2022-07-17T07:24:42;5.10;;;1.80;;
25715;SDS011;13573;50.936;4.328;2022-07-17T07:27:09;5.20;;;1.98;;
25715;SDS011;13573;50.936;4.328;2022-07-17T07:29:37;4.28;;;2.10;;
25715;SDS011;13573;50.936;4.328;2022-07-17T07:32:04;5.22;;;1.75;;
25715;SDS011;13573;50.936;4.328;2022-07-17T07:34:31;4.33;;;1.98;;
25715;SDS011;13573;50.936;4.328;2022-07-17T07:36:57;5.10;;;2.10;;
25715;SDS011;13573;50.936;4.328;2022-07-17T07:39:24;7.53;;;1.87;;
25715;SDS011;13573;50.936;4.328;2022-07-17T07:41:51;7.95;;;1.80;;
25715;SDS011;13573;50.936;4.328;2022-07-17T07:44:17;6.85;;;1.90;;
25715;SDS011;13573;50.936;4.328;2022-07-17T07:46:45;8.40;;;1.90;;
25715;SDS011;13573;50.936;4.328;2022-07-17T07:49:12;8.88;;;1.80;;
25715;SDS011;13573;50.936;4.328;2022-07-17T07:51:38;5.10;;;1.90;;
25715;SDS011;13573;50.936;4.328;2022-07-17T07:54:05;8.08;;;1.50;;
25715;SDS011;13573;50.936;4.328;2022-07-17T07:56:31;6.60;;;1.80;;
25715;SDS011;13573;50.936;4.328;2022-07-17T07:58:59;5.10;;;2.17;;
25715;SDS011;13573;50.936;4.328;2022-07-17T08:01:26;5.75;;;2.00;;
25715;SDS011;13573;50.936;4.328;2022-07-17T08:03:52;8.95;;;2.12;;
25715;SDS011;13573;50.936;4.328;2022-07-17T08:06:19;5.53;;;1.60;;
25715;SDS011;13573;50.936;4.328;2022-07-17T08:08:45;5.40;;;1.80;;
25715;SDS011;13573;50.936;4.328;2022-07-17T08:11:12;4.40;;;1.12;;
25715;SDS011;13573;50.936;4.328;2022-07-17T08:13:40;4.90;;;1.45;;
25715;SDS011;13573;50.936;4.328;2022-07-17T08:16:08;6.05;;;1.50;;
25715;SDS011;13573;50.936;4.328;2022-07-17T08:18:34;3.33;;;1.47;;
25715;SDS011;13573;50.936;4.328;2022-07-17T08:21:01;5.72;;;1.27;;
25715;SDS011;13573;50.936;4.328;2022-07-17T08:23:29;3.75;;;1.50;;
25715;SDS011;13573;50.936;4.328;2022-07-17T08:25:55;3.22;;;1.25;;
25715;SDS011;13573;50.936;4.328;2022-07-17T08:28:22;6.72;;;1.72;;
25715;SDS011;13573;50.936;4.328;2022-07-17T08:30:49;7.20;;;1.65;;
25715;SDS011;13573;50.936;4.328;2022-07-17T08:33:16;7.15;;;1.85;;
25715;SDS011;13573;50.936;4.328;2022-07-17T08:35:43;6.60;;;1.62;;
25715;SDS011;13573;50.936;4.328;2022-07-17T08:38:10;2.95;;;1.10;;
25715;SDS011;13573;50.936;4.328;2022-07-17T08:40:37;3.22;;;1.25;;
25715;SDS011;13573;50.936;4.328;2022-07-17T08:43:05;2.95;;;1.35;;
25715;SDS011;13573;50.936;4.328;2022-07-17T08:45:33;5.50;;;1.45;;
25715;SDS011;13573;50.936;4.328;2022-07-17T08:48:00;4.33;;;1.37;;
25715;SDS011;13573;50.936;4.328;2022-07-17T08:50:28;3.65;;;1.30;;
25715;SDS011;13573;50.936;4.328;2022-07-17T08:52:58;3.90;;;1.57;;
25715;SDS011;13573;50.936;4.328;2022-07-17T08:55:25;5.67;;;1.22;;
25715;SDS011;13573;50.936;4.328;2022-07-17T08:57:52;3.47;;;1.35;;
25715;SDS011;13573;50.936;4.328;2022-07-17T09:00:19;5.20;;;1.20;;
25715;SDS011;13573;50.936;4.328;2022-07-17T09:02:55;6.75;;;1.50;;
25715;SDS011;13573;50.936;4.328;2022-07-17T09:05:28;6.35;;;1.30;;
25715;SDS011;13573;50.936;4.328;2022-07-17T09:07:56;5.78;;;1.60;;
25715;SDS011;13573;50.936;4.328;2022-07-17T09:10:30;4.08;;;1.37;;
25715;SDS011;13573;50.936;4.328;2022-07-17T09:12:59;3.58;;;1.40;;
25715;SDS011;13573;50.936;4.328;2022-07-17T09:15:26;6.62;;;1.70;;
25715;SDS011;13573;50.936;4.328;2022-07-17T09:17:55;10.75;;;1.92;;
25715;SDS011;13573;50.936;4.328;2022-07-17T09:20:23;4.58;;;1.50;;
25715;SDS011;13573;50.936;4.328;2022-07-17T09:22:55;3.70;;;1.30;;
25715;SDS011;13573;50.936;4.328;2022-07-17T09:25:32;7.00;;;1.85;;
25715;SDS011;13573;50.936;4.328;2022-07-17T09:28:09;5.08;;;1.70;;
25715;SDS011;13573;50.936;4.328;2022-07-17T09:30:39;5.05;;;1.75;;
25715;SDS011;13573;50.936;4.328;2022-07-17T09:33:10;3.10;;;1.40;;
25715;SDS011;13573;50.936;4.328;2022-07-17T09:35:46;6.10;;;1.85;;
25715;SDS011;13573;50.936;4.328;2022-07-17T09:41:00;3.55;;;1.62;;
25715;SDS011;13573;50.936;4.328;2022-07-17T09:46:07;3.62;;;1.85;;
25715;SDS011;13573;50.936;4.328;2022-07-17T09:48:35;6.58;;;2.10;;
25715;SDS011;13573;50.936;4.328;2022-07-17T09:51:03;6.05;;;1.70;;
25715;SDS011;13573;50.936;4.328;2022-07-17T09:53:31;4.90;;;1.85;;
25715;SDS011;13573;50.936;4.328;2022-07-17T09:55:59;4.70;;;2.00;;
25715;SDS011;13573;50.936;4.328;2022-07-17T09:58:28;6.33;;;1.85;;
25715;SDS011;13573;50.936;4.328;2022-07-17T10:00:57;4.10;;;2.12;;
25715;SDS011;13573;50.936;4.328;2022-07-17T10:03:25;7.25;;;2.55;;
25715;SDS011;13573;50.936;4.328;2022-07-17T10:05:52;6.53;;;2.47;;
25715;SDS011;13573;50.936;4.328;2022-07-17T10:08:20;6.97;;;2.60;;
25715;SDS011;13573;50.936;4.328;2022-07-17T10:10:47;5.05;;;2.20;;
25715;SDS011;13573;50.936;4.328;2022-07-17T10:13:14;4.58;;;2.20;;
25715;SDS011;13573;50.936;4.328;2022-07-17T10:15:41;5.05;;;2.27;;
25715;SDS011;13573;50.936;4.328;2022-07-17T10:18:08;6.03;;;2.35;;
25715;SDS011;13573;50.936;4.328;2022-07-17T10:20:35;5.40;;;2.10;;
25715;SDS011;13573;50.936;4.328;2022-07-17T10:23:11;3.30;;;1.77;;
25715;SDS011;13573;50.936;4.328;2022-07-17T10:25:36;6.90;;;2.20;;
25715;SDS011;13573;50.936;4.328;2022-07-17T10:28:03;4.90;;;2.00;;
25715;SDS011;13573;50.936;4.328;2022-07-17T10:30:29;4.58;;;1.87;;
25715;SDS011;13573;50.936;4.328;2022-07-17T10:32:58;4.03;;;1.80;;
25715;SDS011;13573;50.936;4.328;2022-07-17T10:35:27;4.30;;;2.00;;
25715;SDS011;13573;50.936;4.328;2022-07-17T10:37:58;3.87;;;1.85;;
25715;SDS011;13573;50.936;4.328;2022-07-17T10:40:43;4.40;;;2.15;;
25715;SDS011;13573;50.936;4.328;2022-07-17T10:43:09;4.67;;;2.00;;
25715;SDS011;13573;50.936;4.328;2022-07-17T10:45:37;5.87;;;1.95;;
25715;SDS011;13573;50.936;4.328;2022-07-17T10:48:09;2.92;;;1.52;;
25715;SDS011;13573;50.936;4.328;2022-07-17T10:50:40;4.25;;;1.95;;
25715;SDS011;13573;50.936;4.328;2022-07-17T10:53:13;4.67;;;2.20;;
25715;SDS011;13573;50.936;4.328;2022-07-17T10:55:45;4.60;;;2.02;;
25715;SDS011;13573;50.936;4.328;2022-07-17T10:58:16;4.65;;;1.80;;
25715;SDS011;13573;50.936;4.328;2022-07-17T11:03:18;5.28;;;1.80;;
25715;SDS011;13573;50.936;4.328;2022-07-17T11:05:45;5.47;;;2.12;;
25715;SDS011;13573;50.936;4.328;2022-07-17T11:08:11;6.10;;;2.10;;
25715;SDS011;13573;50.936;4.328;2022-07-17T11:10:40;3.92;;;2.00;;
25715;SDS011;13573;50.936;4.328;2022-07-17T11:13:07;3.90;;;2.40;;
25715;SDS011;13573;50.936;4.328;2022-07-17T11:15:38;3.50;;;2.62;;
25715;SDS011;13573;50.936;4.328;2022-07-17T11:18:12;4.35;;;2.60;;
25715;SDS011;13573;50.936;4.328;2022-07-17T11:20:46;4.30;;;2.08;;
25715;SDS011;13573;50.936;4.328;2022-07-17T11:23:23;3.35;;;2.55;;
25715;SDS011;13573;50.936;4.328;2022-07-17T11:25:54;5.55;;;2.30;;
25715;SDS011;13573;50.936;4.328;2022-07-17T11:28:34;4.95;;;2.60;;
25715;SDS011;13573;50.936;4.328;2022-07-17T11:33:46;3.15;;;2.20;;
25715;SDS011;13573;50.936;4.328;2022-07-17T11:38:48;3.95;;;2.52;;
25715;SDS011;13573;50.936;4.328;2022-07-17T11:41:16;3.58;;;2.47;;
25715;SDS011;13573;50.936;4.328;2022-07-17T11:43:44;4.05;;;2.90;;
25715;SDS011;13573;50.936;4.328;2022-07-17T11:46:12;3.52;;;2.62;;
25715;SDS011;13573;50.936;4.328;2022-07-17T11:48:41;5.33;;;2.67;;
25715;SDS011;13573;50.936;4.328;2022-07-17T11:51:09;3.52;;;2.35;;
25715;SDS011;13573;50.936;4.328;2022-07-17T11:53:37;4.33;;;2.75;;
25715;SDS011;13573;50.936;4.328;2022-07-17T11:56:05;3.70;;;2.27;;
25715;SDS011;13573;50.936;4.328;2022-07-17T12:01:07;5.22;;;2.67;;
25715;SDS011;13573;50.936;4.328;2022-07-17T12:03:34;4.20;;;2.80;;
25715;SDS011;13573;50.936;4.328;2022-07-17T12:06:01;4.03;;;2.70;;
25715;SDS011;13573;50.936;4.328;2022-07-17T12:08:27;3.95;;;2.72;;
25715;SDS011;13573;50.936;4.328;2022-07-17T12:11:00;6.15;;;2.70;;
25715;SDS011;13573;50.936;4.328;2022-07-17T12:13:36;5.65;;;2.85;;
25715;SDS011;13573;50.936;4.328;2022-07-17T12:18:54;7.00;;;3.02;;
25715;SDS011;13573;50.936;4.328;2022-07-17T12:21:19;4.42;;;3.05;;
25715;SDS011;13573;50.936;4.328;2022-07-17T12:23:54;4.75;;;3.02;;
25715;SDS011;13573;50.936;4.328;2022-07-17T12:26:16;3.95;;;2.77;;
25715;SDS011;13573;50.936;4.328;2022-07-17T12:28:46;3.98;;;2.90;;
25715;SDS011;13573;50.936;4.328;2022-07-17T12:31:12;3.33;;;2.75;;
25715;SDS011;13573;50.936;4.328;2022-07-17T12:33:40;6.35;;;2.70;;
25715;SDS011;13573;50.936;4.328;2022-07-17T12:36:07;4.05;;;2.45;;
25715;SDS011;13573;50.936;4.328;2022-07-17T12:38:34;6.62;;;2.70;;
25715;SDS011;13573;50.936;4.328;2022-07-17T12:41:00;3.87;;;2.52;;
25715;SDS011;13573;50.936;4.328;2022-07-17T12:43:27;3.98;;;2.70;;
25715;SDS011;13573;50.936;4.328;2022-07-17T12:45:54;4.30;;;2.55;;
25715;SDS011;13573;50.936;4.328;2022-07-17T12:48:21;5.15;;;2.60;;
25715;SDS011;13573;50.936;4.328;2022-07-17T12:50:47;4.20;;;2.65;;
25715;SDS011;13573;50.936;4.328;2022-07-17T12:53:14;3.33;;;2.55;;
25715;SDS011;13573;50.936;4.328;2022-07-17T12:55:41;4.92;;;2.40;;
25715;SDS011;13573;50.936;4.328;2022-07-17T12:58:08;3.70;;;2.47;;
25715;SDS011;13573;50.936;4.328;2022-07-17T13:00:34;4.92;;;2.60;;
25715;SDS011;13573;50.936;4.328;2022-07-17T13:03:01;6.85;;;2.83;;
25715;SDS011;13573;50.936;4.328;2022-07-17T13:05:29;3.52;;;2.62;;
25715;SDS011;13573;50.936;4.328;2022-07-17T13:07:56;3.58;;;2.77;;
25715;SDS011;13573;50.936;4.328;2022-07-17T13:10:23;3.10;;;2.45;;
25715;SDS011;13573;50.936;4.328;2022-07-17T13:12:51;4.30;;;3.00;;
25715;SDS011;13573;50.936;4.328;2022-07-17T13:15:17;5.80;;;2.75;;
25715;SDS011;13573;50.936;4.328;2022-07-17T13:17:45;5.10;;;2.70;;
25715;SDS011;13573;50.936;4.328;2022-07-17T13:20:11;3.45;;;2.37;;
25715;SDS011;13573;50.936;4.328;2022-07-17T13:22:39;4.42;;;2.80;;
25715;SDS011;13573;50.936;4.328;2022-07-17T13:25:06;6.08;;;2.70;;
25715;SDS011;13573;50.936;4.328;2022-07-17T13:27:32;5.70;;;3.20;;
25715;SDS011;13573;50.936;4.328;2022-07-17T13:29:59;2.95;;;2.37;;
25715;SDS011;13573;50.936;4.328;2022-07-17T13:32:26;4.47;;;2.30;;
25715;SDS011;13573;50.936;4.328;2022-07-17T13:34:52;5.05;;;2.42;;
25715;SDS011;13573;50.936;4.328;2022-07-17T13:37:19;3.62;;;2.83;;
25715;SDS011;13573;50.936;4.328;2022-07-17T13:39:46;3.33;;;2.52;;
25715;SDS011;13573;50.936;4.328;2022-07-17T13:42:12;7.78;;;3.22;;
25715;SDS011;13573;50.936;4.328;2022-07-17T13:44:39;5.47;;;3.20;;
25715;SDS011;13573;50.936;4.328;2022-07-17T13:47:06;4.67;;;3.08;;
25715;SDS011;13573;50.936;4.328;2022-07-17T13:49:32;4.85;;;3.20;;
25715;SDS011;13573;50.936;4.328;2022-07-17T13:51:59;4.72;;;3.35;;
25715;SDS011;13573;50.936;4.328;2022-07-17T13:54:26;3.42;;;2.90;;
25715;SDS011;13573;50.936;4.328;2022-07-17T13:56:54;5.97;;;2.72;;
25715;SDS011;13573;50.936;4.328;2022-07-17T13:59:20;4.37;;;2.90;;
25715;SDS011;13573;50.936;4.328;2022-07-17T14:01:47;4.50;;;3.00;;
25715;SDS011;13573;50.936;4.328;2022-07-17T14:04:14;4.12;;;2.70;;
25715;SDS011;13573;50.936;4.328;2022-07-17T14:06:40;4.47;;;3.22;;
25715;SDS011;13573;50.936;4.328;2022-07-17T14:09:07;5.78;;;2.92;;
25715;SDS011;13573;50.936;4.328;2022-07-17T14:11:35;6.47;;;2.92;;
25715;SDS011;13573;50.936;4.328;2022-07-17T14:14:02;4.40;;;2.72;;
25715;SDS011;13573;50.936;4.328;2022-07-17T14:16:29;3.65;;;2.85;;
25715;SDS011;13573;50.936;4.328;2022-07-17T14:18:56;3.05;;;2.70;;
25715;SDS011;13573;50.936;4.328;2022-07-17T14:21:25;7.42;;;3.08;;
25715;SDS011;13573;50.936;4.328;2022-07-17T14:23:55;6.00;;;2.62;;
25715;SDS011;13573;50.936;4.328;2022-07-17T14:26:22;3.58;;;2.92;;
25715;SDS011;13573;50.936;4.328;2022-07-17T14:28:49;5.67;;;2.90;;
25715;SDS011;13573;50.936;4.328;2022-07-17T14:31:15;4.15;;;2.90;;
25715;SDS011;13573;50.936;4.328;2022-07-17T14:33:43;5.37;;;2.87;;
25715;SDS011;13573;50.936;4.328;2022-07-17T14:36:10;4.15;;;3.30;;
25715;SDS011;13573;50.936;4.328;2022-07-17T14:38:37;4.72;;;3.15;;
25715;SDS011;13573;50.936;4.328;2022-07-17T14:41:03;6.15;;;2.87;;
25715;SDS011;13573;50.936;4.328;2022-07-17T14:43:31;4.05;;;2.90;;
25715;SDS011;13573;50.936;4.328;2022-07-17T14:45:59;4.20;;;2.70;;
25715;SDS011;13573;50.936;4.328;2022-07-17T14:48:26;4.53;;;3.25;;
25715;SDS011;13573;50.936;4.328;2022-07-17T14:50:52;4.53;;;2.92;;
25715;SDS011;13573;50.936;4.328;2022-07-17T14:53:19;6.92;;;2.98;;
25715;SDS011;13573;50.936;4.328;2022-07-17T14:55:46;5.15;;;3.15;;
25715;SDS011;13573;50.936;4.328;2022-07-17T14:58:12;5.70;;;3.08;;
25715;SDS011;13573;50.936;4.328;2022-07-17T15:00:39;7.37;;;3.02;;
25715;SDS011;13573;50.936;4.328;2022-07-17T15:03:06;4.08;;;2.77;;
25715;SDS011;13573;50.936;4.328;2022-07-17T15:05:33;4.83;;;2.47;;
25715;SDS011;13573;50.936;4.328;2022-07-17T15:08:00;4.65;;;3.00;;